createdAt,value
2019-03-24T00:01:57.303Z,1.83
2019-03-24T00:04:26.232Z,2.90
2019-03-24T00:06:55.119Z,3.90
2019-03-24T00:09:24.007Z,1.72
2019-03-24T00:11:53.007Z,3.90
2019-03-24T00:14:21.889Z,4.40
2019-03-24T00:16:50.790Z,3.40
2019-03-24T00:19:19.692Z,3.27
2019-03-24T00:21:48.599Z,3.50
2019-03-24T00:24:18.464Z,1.93
2019-03-24T00:26:47.371Z,4.33
2019-03-24T00:29:16.258Z,2.98
2019-03-24T00:31:45.530Z,2.92
2019-03-24T00:34:14.431Z,3.10
2019-03-24T00:36:43.312Z,2.95
2019-03-24T00:39:12.187Z,2.93
2019-03-24T00:41:41.087Z,3.03
2019-03-24T00:44:09.986Z,4.03
2019-03-24T00:46:38.890Z,3.07
2019-03-24T00:49:07.786Z,3.50
2019-03-24T00:51:36.747Z,2.62
2019-03-24T00:54:05.638Z,3.20
2019-03-24T00:56:34.523Z,3.27
2019-03-24T00:59:03.431Z,2.60
2019-03-24T01:01:32.308Z,2.30
2019-03-24T01:04:01.235Z,2.00
2019-03-24T01:06:31.099Z,2.00
2019-03-24T01:09:00.051Z,2.33
2019-03-24T01:11:28.940Z,2.23
2019-03-24T01:13:58.811Z,2.90
2019-03-24T01:16:28.671Z,2.47
2019-03-24T01:18:57.566Z,2.10
2019-03-24T01:21:26.828Z,3.22
2019-03-24T01:23:55.703Z,1.97
2019-03-24T01:26:24.677Z,2.80
2019-03-24T01:28:53.554Z,2.50
2019-03-24T01:31:22.435Z,3.00
2019-03-24T01:33:51.327Z,2.47
2019-03-24T01:36:20.219Z,1.80
2019-03-24T01:38:49.133Z,2.70
2019-03-24T01:41:18.014Z,3.47
2019-03-24T01:43:46.907Z,2.90
2019-03-24T01:46:15.802Z,2.40
2019-03-24T01:48:44.686Z,2.57
2019-03-24T01:51:13.683Z,2.53
2019-03-24T01:53:42.605Z,2.60
2019-03-24T01:56:11.618Z,3.08
2019-03-24T01:58:40.488Z,2.80
2019-03-24T02:01:09.380Z,1.60
2019-03-24T02:03:38.275Z,1.82
2019-03-24T02:06:07.163Z,2.57
2019-03-24T02:08:36.055Z,2.90
2019-03-24T02:11:04.956Z,2.67
2019-03-24T02:13:34.714Z,3.02
2019-03-24T02:16:09.255Z,1.70
2019-03-24T02:18:34.122Z,2.40
2019-03-24T02:21:02.994Z,2.70
2019-03-24T02:23:31.923Z,1.63
2019-03-24T02:26:00.824Z,2.57
2019-03-24T02:28:29.727Z,2.87
2019-03-24T02:30:58.607Z,2.40
2019-03-24T02:33:27.603Z,2.03
2019-03-24T02:35:56.479Z,2.70
2019-03-24T02:38:25.443Z,2.03
2019-03-24T02:40:54.425Z,2.73
2019-03-24T02:43:23.312Z,2.00
2019-03-24T02:45:52.178Z,2.57
2019-03-24T02:48:21.070Z,3.37
2019-03-24T02:50:49.953Z,1.40
2019-03-24T02:53:18.872Z,2.13
2019-03-24T02:55:47.812Z,2.83
2019-03-24T02:58:16.701Z,2.27
2019-03-24T03:00:45.595Z,2.13
2019-03-24T03:03:14.509Z,4.10
2019-03-24T03:05:43.424Z,2.90
2019-03-24T03:08:12.312Z,2.90
2019-03-24T03:10:41.215Z,2.40
2019-03-24T03:13:10.098Z,2.83
2019-03-24T03:15:38.987Z,2.17
2019-03-24T03:18:07.944Z,2.33
2019-03-24T03:20:36.860Z,2.20
2019-03-24T03:23:05.768Z,2.93
2019-03-24T03:25:34.666Z,2.77
2019-03-24T03:28:03.615Z,2.90
2019-03-24T03:30:32.514Z,3.00
2019-03-24T03:33:01.401Z,2.57
2019-03-24T03:35:30.321Z,2.80
2019-03-24T03:37:59.268Z,2.62
2019-03-24T03:40:28.160Z,2.20
2019-03-24T03:42:57.295Z,2.70
2019-03-24T03:45:26.798Z,2.80
2019-03-24T03:47:55.743Z,2.47
2019-03-24T03:50:24.640Z,2.60
2019-03-24T03:52:53.532Z,2.50
2019-03-24T03:55:22.495Z,2.17
2019-03-24T03:57:51.401Z,3.10
2019-03-24T04:00:22.556Z,2.13
2019-03-24T04:02:51.432Z,2.85
2019-03-24T04:05:20.332Z,3.17
2019-03-24T04:07:49.242Z,3.33
2019-03-24T04:10:18.122Z,3.27
2019-03-24T04:12:47.003Z,2.47
2019-03-24T04:15:15.973Z,2.33
2019-03-24T04:17:44.876Z,2.60
2019-03-24T04:20:13.745Z,3.57
2019-03-24T04:22:42.764Z,2.70
2019-03-24T04:25:11.648Z,2.33
2019-03-24T04:27:40.535Z,2.83
2019-03-24T04:30:09.652Z,3.05
2019-03-24T04:32:38.528Z,3.13
2019-03-24T04:35:08.250Z,3.33
2019-03-24T04:37:37.119Z,2.87
2019-03-24T04:40:06.340Z,2.47
2019-03-24T04:42:35.230Z,2.67
2019-03-24T04:45:04.250Z,2.70
2019-03-24T04:47:33.145Z,2.77
2019-03-24T04:50:02.034Z,2.70
2019-03-24T04:52:30.913Z,2.90
2019-03-24T04:54:59.816Z,2.53
2019-03-24T04:57:28.700Z,2.60
2019-03-24T04:59:57.596Z,3.17
2019-03-24T05:02:26.483Z,2.27
2019-03-24T05:04:55.375Z,3.87
2019-03-24T05:07:25.250Z,2.90
2019-03-24T05:09:55.171Z,3.08
2019-03-24T05:12:24.071Z,2.77
2019-03-24T05:14:52.963Z,3.00
2019-03-24T05:17:26.981Z,3.40
2019-03-24T05:19:53.095Z,2.92
2019-03-24T05:22:21.971Z,2.93
2019-03-24T05:24:50.875Z,3.10
2019-03-24T05:27:19.796Z,3.67
2019-03-24T05:29:48.690Z,3.00
2019-03-24T05:32:17.583Z,3.23
2019-03-24T05:34:47.454Z,3.23
2019-03-24T05:37:16.333Z,2.70
2019-03-24T05:39:45.227Z,3.47
2019-03-24T05:42:14.815Z,2.85
2019-03-24T05:44:43.711Z,3.52
2019-03-24T05:47:12.599Z,3.12
2019-03-24T05:49:41.494Z,3.60
2019-03-24T05:52:10.399Z,3.00
2019-03-24T05:54:39.279Z,2.97
2019-03-24T05:57:08.171Z,3.23
2019-03-24T05:59:37.049Z,3.70
2019-03-24T06:02:06.022Z,3.10
2019-03-24T06:04:35.204Z,3.10
2019-03-24T06:07:04.185Z,2.37
2019-03-24T06:09:33.091Z,3.35
2019-03-24T06:12:01.978Z,2.37
2019-03-24T06:14:30.865Z,1.33
2019-03-24T06:16:59.892Z,3.43
2019-03-24T06:19:28.782Z,3.85
2019-03-24T06:21:57.880Z,3.87
2019-03-24T06:24:26.786Z,2.60
2019-03-24T06:26:55.673Z,3.70
2019-03-24T06:29:24.563Z,2.90
2019-03-24T06:31:53.459Z,3.40
2019-03-24T06:34:22.380Z,3.23
2019-03-24T06:36:51.276Z,3.70
2019-03-24T06:39:20.239Z,3.40
2019-03-24T06:41:49.148Z,3.43
2019-03-24T06:44:18.038Z,3.80
2019-03-24T06:46:46.945Z,2.93
2019-03-24T06:49:15.851Z,3.37
2019-03-24T06:51:45.791Z,3.07
2019-03-24T06:54:14.682Z,3.12
2019-03-24T06:56:43.607Z,3.65
2019-03-24T06:59:12.492Z,2.97
2019-03-24T07:01:41.402Z,2.92
2019-03-24T07:04:10.296Z,3.43
2019-03-24T07:06:39.274Z,3.33
2019-03-24T07:09:08.159Z,3.50
2019-03-24T07:11:37.059Z,3.23
2019-03-24T07:14:05.962Z,3.50
2019-03-24T07:16:34.915Z,2.10
2019-03-24T07:19:03.819Z,0.45
2019-03-24T07:21:32.719Z,2.90
2019-03-24T07:24:01.627Z,3.60
2019-03-24T07:26:30.512Z,3.33
2019-03-24T07:28:59.399Z,3.23
2019-03-24T07:31:28.371Z,2.93
2019-03-24T07:33:57.272Z,3.07
2019-03-24T07:36:26.159Z,3.10
2019-03-24T07:38:55.119Z,2.60
2019-03-24T07:41:24.035Z,3.00
2019-03-24T07:43:52.925Z,2.27
2019-03-24T07:46:21.897Z,3.47
2019-03-24T07:48:50.811Z,2.37
2019-03-24T07:51:19.711Z,2.62
2019-03-24T07:53:48.594Z,2.58
2019-03-24T07:56:17.483Z,3.90
2019-03-24T07:58:46.362Z,1.90
2019-03-24T08:01:16.238Z,4.20
2019-03-24T08:03:45.110Z,2.80
2019-03-24T08:06:14.012Z,3.30
2019-03-24T08:08:44.476Z,3.43
2019-03-24T08:11:14.001Z,3.77
2019-03-24T08:13:53.103Z,3.90
2019-03-24T08:16:13.391Z,3.23
2019-03-24T08:18:42.269Z,1.10
2019-03-24T08:21:11.166Z,1.47
2019-03-24T08:23:40.331Z,1.87
2019-03-24T08:26:09.566Z,1.43
2019-03-24T08:28:38.491Z,2.08
2019-03-24T08:31:07.387Z,2.22
2019-03-24T08:33:36.315Z,2.53
2019-03-24T08:36:05.314Z,3.03
2019-03-24T08:38:34.215Z,3.15
2019-03-24T08:41:03.564Z,2.57
2019-03-24T08:43:32.491Z,2.60
2019-03-24T08:46:01.645Z,3.08
2019-03-24T08:48:40.525Z,4.25
2019-03-24T08:51:01.063Z,4.00
2019-03-24T08:53:29.952Z,3.97
2019-03-24T08:55:58.848Z,4.67
2019-03-24T08:58:28.094Z,4.80
2019-03-24T09:00:56.993Z,4.77
2019-03-24T09:03:25.915Z,4.12
2019-03-24T09:05:54.815Z,4.50
2019-03-24T09:08:23.739Z,4.15
2019-03-24T09:10:52.647Z,5.60
2019-03-24T09:13:22.537Z,4.97
2019-03-24T09:15:51.472Z,5.10
2019-03-24T09:18:20.366Z,5.57
2019-03-24T09:20:49.762Z,4.33
2019-03-24T09:23:18.661Z,5.12
2019-03-24T09:25:47.549Z,4.42
2019-03-24T09:28:16.443Z,5.17
2019-03-24T09:30:45.347Z,5.03
2019-03-24T09:33:14.264Z,4.80
2019-03-24T09:35:43.231Z,4.30
2019-03-24T09:38:12.171Z,4.50
2019-03-24T09:40:41.049Z,5.40
2019-03-24T09:43:09.997Z,5.33
2019-03-24T09:45:38.874Z,4.03
2019-03-24T09:48:07.761Z,4.70
2019-03-24T09:50:36.866Z,4.77
2019-03-24T09:53:05.765Z,4.35
2019-03-24T09:55:34.828Z,4.70
2019-03-24T09:58:03.707Z,4.47
2019-03-24T10:00:32.619Z,5.03
2019-03-24T10:03:01.501Z,3.97
2019-03-24T10:05:30.406Z,4.17
2019-03-24T10:07:59.295Z,4.53
2019-03-24T10:10:28.179Z,3.77
2019-03-24T10:12:57.239Z,4.60
2019-03-24T10:15:26.231Z,3.15
2019-03-24T10:17:55.123Z,1.90
2019-03-24T10:20:24.007Z,2.30
2019-03-24T10:22:56.694Z,2.00
2019-03-24T10:25:25.589Z,1.70
2019-03-24T10:27:54.543Z,2.63
2019-03-24T10:30:23.452Z,2.70
2019-03-24T10:32:52.360Z,2.83
2019-03-24T10:35:21.246Z,2.27
2019-03-24T10:37:50.129Z,2.70
2019-03-24T10:40:28.206Z,2.70
2019-03-24T10:42:49.579Z,2.80
2019-03-24T10:45:18.469Z,2.17
2019-03-24T10:47:47.366Z,2.22
2019-03-24T10:50:16.255Z,1.70
2019-03-24T10:52:45.219Z,1.90
2019-03-24T10:55:14.127Z,2.00
2019-03-24T10:57:43.079Z,2.02
2019-03-24T11:00:13.091Z,2.00
2019-03-24T11:02:41.971Z,3.27
2019-03-24T11:05:11.472Z,2.20
2019-03-24T11:07:41.428Z,1.90
2019-03-24T11:10:10.663Z,2.30
2019-03-24T11:12:39.879Z,1.40
2019-03-24T11:15:09.786Z,1.92
2019-03-24T11:17:38.790Z,1.70
2019-03-24T11:20:08.498Z,1.92
2019-03-24T11:22:37.374Z,1.53
2019-03-24T11:25:07.371Z,1.33
2019-03-24T11:27:36.266Z,1.92
2019-03-24T11:30:05.870Z,2.00
2019-03-24T11:32:34.836Z,1.95
2019-03-24T11:35:03.942Z,2.77
2019-03-24T11:37:32.826Z,2.40
2019-03-24T11:40:01.779Z,2.13
2019-03-24T11:42:30.668Z,1.97
2019-03-24T11:44:59.586Z,1.50
2019-03-24T11:47:28.458Z,1.92
2019-03-24T11:49:57.358Z,2.35
2019-03-24T11:52:26.351Z,1.87
2019-03-24T11:54:55.213Z,2.13
2019-03-24T11:57:24.108Z,2.17
2019-03-24T11:59:53.016Z,2.00
2019-03-24T12:02:21.991Z,2.60
2019-03-24T12:04:50.896Z,2.37
2019-03-24T12:07:19.815Z,1.60
2019-03-24T12:09:48.690Z,2.10
2019-03-24T12:12:17.604Z,2.20
2019-03-24T12:14:46.487Z,1.77
2019-03-24T12:17:15.393Z,1.93
2019-03-24T12:19:44.299Z,2.00
2019-03-24T12:22:13.197Z,1.80
2019-03-24T12:24:42.091Z,2.05
2019-03-24T12:27:11.014Z,1.67
2019-03-24T12:29:39.911Z,1.60
2019-03-24T12:32:08.786Z,1.92
2019-03-24T12:34:37.780Z,1.67
2019-03-24T12:37:06.791Z,2.17
2019-03-24T12:39:35.679Z,1.60
2019-03-24T12:42:04.585Z,1.67
2019-03-24T12:44:33.467Z,1.53
2019-03-24T12:47:02.364Z,1.43
2019-03-24T12:49:31.263Z,1.00
2019-03-24T12:52:00.151Z,1.60
2019-03-24T12:54:29.036Z,1.17
2019-03-24T12:56:57.928Z,1.50
2019-03-24T12:59:26.861Z,1.43
2019-03-24T13:01:55.786Z,1.50
2019-03-24T13:04:24.655Z,1.67
2019-03-24T13:06:53.562Z,1.80
2019-03-24T13:09:22.451Z,1.40
2019-03-24T13:11:51.339Z,1.37
2019-03-24T13:14:20.220Z,1.33
2019-03-24T13:16:49.103Z,1.70
2019-03-24T13:19:18.005Z,1.27
2019-03-24T13:21:46.909Z,2.17
2019-03-24T13:24:15.794Z,1.47
2019-03-24T13:26:44.689Z,1.73
2019-03-24T13:29:13.575Z,1.70
2019-03-24T13:31:42.462Z,2.10
2019-03-24T13:34:11.347Z,4.93
2019-03-24T13:36:40.251Z,2.00
2019-03-24T13:39:09.127Z,2.87
2019-03-24T13:41:38.031Z,2.20
2019-03-24T13:44:07.647Z,2.13
2019-03-24T13:46:36.518Z,2.72
2019-03-24T13:49:05.490Z,2.33
2019-03-24T13:51:34.779Z,1.50
2019-03-24T13:54:03.679Z,2.17
2019-03-24T13:56:32.562Z,1.85
2019-03-24T13:59:01.476Z,1.90
2019-03-24T14:01:30.445Z,2.00
2019-03-24T14:03:59.367Z,2.50
2019-03-24T14:06:28.287Z,2.03
2019-03-24T14:08:57.179Z,2.15
2019-03-24T14:11:26.077Z,1.93
2019-03-24T14:13:55.069Z,1.70
2019-03-24T14:16:23.962Z,1.80
2019-03-24T14:18:52.859Z,2.27
2019-03-24T14:21:21.764Z,1.85
2019-03-24T14:23:50.646Z,1.30
2019-03-24T14:26:19.527Z,1.50
2019-03-24T14:28:48.420Z,1.85
2019-03-24T14:31:17.315Z,1.98
2019-03-24T14:33:46.247Z,2.83
2019-03-24T14:36:15.133Z,1.80
2019-03-24T14:38:44.019Z,1.87
2019-03-24T14:41:13.279Z,2.27
2019-03-24T14:43:42.171Z,2.80
2019-03-24T14:46:11.065Z,2.35
2019-03-24T14:48:39.975Z,2.47
2019-03-24T14:51:08.864Z,2.70
2019-03-24T14:53:37.751Z,2.27
2019-03-24T14:56:06.762Z,2.92
2019-03-24T14:58:35.663Z,2.73
2019-03-24T15:01:04.557Z,2.37
2019-03-24T15:03:33.986Z,2.30
2019-03-24T15:06:02.864Z,2.30
2019-03-24T15:08:31.791Z,2.42
2019-03-24T15:11:00.758Z,2.23
2019-03-24T15:13:29.651Z,1.93
2019-03-24T15:15:58.573Z,2.22
2019-03-24T15:18:27.465Z,2.15
2019-03-24T15:21:05.195Z,2.47
2019-03-24T15:23:27.070Z,2.12
2019-03-24T15:25:55.948Z,1.97
2019-03-24T15:28:24.835Z,2.75
2019-03-24T15:30:53.736Z,2.10
2019-03-24T15:33:22.660Z,1.70
2019-03-24T15:35:51.545Z,2.57
2019-03-24T15:38:20.425Z,2.47
2019-03-24T15:40:49.667Z,2.10
2019-03-24T15:43:18.554Z,1.77
2019-03-24T15:45:47.570Z,2.12
2019-03-24T15:48:16.475Z,1.95
2019-03-24T15:50:45.367Z,1.97
2019-03-24T15:53:14.260Z,2.08
2019-03-24T15:55:44.728Z,1.98
2019-03-24T15:58:13.615Z,1.60
2019-03-24T16:00:43.395Z,2.15
2019-03-24T16:03:12.288Z,1.75
2019-03-24T16:05:41.183Z,1.95
2019-03-24T16:08:11.426Z,2.00
2019-03-24T16:10:40.316Z,1.80
2019-03-24T16:13:09.207Z,1.62
2019-03-24T16:15:38.116Z,1.70
2019-03-24T16:18:06.998Z,2.13
2019-03-24T16:20:35.877Z,2.30
2019-03-24T16:23:04.794Z,1.70
2019-03-24T16:25:33.677Z,1.67
2019-03-24T16:28:02.571Z,1.87
2019-03-24T16:30:33.191Z,1.60
2019-03-24T16:33:02.143Z,1.80
2019-03-24T16:35:31.039Z,1.83
2019-03-24T16:37:59.926Z,1.73
2019-03-24T16:40:28.827Z,1.50
2019-03-24T16:42:57.743Z,1.50
2019-03-24T16:45:26.631Z,1.80
2019-03-24T16:47:55.518Z,1.80
2019-03-24T16:50:24.439Z,1.60
2019-03-24T16:52:53.329Z,1.30
2019-03-24T16:55:22.207Z,1.33
2019-03-24T16:57:51.139Z,1.53
2019-03-24T17:00:20.247Z,1.40
2019-03-24T17:02:49.210Z,2.07
2019-03-24T17:05:18.123Z,1.53
2019-03-24T17:07:47.006Z,1.20
2019-03-24T17:10:15.949Z,1.77
2019-03-24T17:12:45.903Z,1.73
2019-03-24T17:15:15.866Z,1.30
2019-03-24T17:17:44.836Z,1.83
2019-03-24T17:20:13.835Z,1.70
2019-03-24T17:22:42.703Z,1.60
2019-03-24T17:25:11.728Z,1.30
2019-03-24T17:27:40.970Z,1.62
2019-03-24T17:30:10.711Z,1.60
2019-03-24T17:32:40.167Z,1.50
2019-03-24T17:35:09.261Z,1.30
2019-03-24T17:37:38.173Z,1.70
2019-03-24T17:40:08.327Z,1.35
2019-03-24T17:42:37.299Z,1.30
2019-03-24T17:45:06.497Z,1.10
2019-03-24T17:47:35.711Z,1.20
2019-03-24T17:50:05.611Z,1.32
2019-03-24T17:52:34.603Z,1.07
2019-03-24T17:55:03.593Z,1.40
2019-03-24T17:57:32.455Z,0.93
2019-03-24T18:00:01.940Z,1.10
2019-03-24T18:02:32.459Z,1.15
2019-03-24T18:05:01.379Z,1.27
2019-03-24T18:07:30.283Z,1.40
2019-03-24T18:10:00.203Z,0.90
2019-03-24T18:12:29.115Z,1.20
2019-03-24T18:14:58.026Z,1.15
2019-03-24T18:17:26.903Z,1.30
2019-03-24T18:19:55.795Z,1.20
2019-03-24T18:22:24.694Z,1.37
2019-03-24T18:24:53.597Z,1.40
2019-03-24T18:27:22.479Z,1.40
2019-03-24T18:29:51.367Z,1.10
2019-03-24T18:32:20.355Z,1.47
2019-03-24T18:34:49.239Z,1.10
2019-03-24T18:37:19.091Z,1.10
2019-03-24T18:39:48.018Z,1.23
2019-03-24T18:42:16.919Z,1.30
2019-03-24T18:44:45.807Z,1.30
2019-03-24T18:47:14.680Z,3.15
2019-03-24T18:49:43.575Z,4.63
2019-03-24T18:52:22.327Z,2.67
2019-03-24T18:54:42.995Z,3.20
2019-03-24T18:57:12.164Z,2.47
2019-03-24T18:59:41.050Z,2.50
2019-03-24T19:02:09.955Z,2.45
2019-03-24T19:04:38.840Z,2.87
2019-03-24T19:07:07.736Z,2.73
2019-03-24T19:09:36.717Z,2.67
2019-03-24T19:12:05.606Z,2.50
2019-03-24T19:14:34.498Z,2.80
2019-03-24T19:17:03.498Z,2.37
2019-03-24T19:19:32.387Z,3.52
2019-03-24T19:22:01.283Z,2.17
2019-03-24T19:24:30.247Z,2.22
2019-03-24T19:26:59.139Z,2.10
2019-03-24T19:29:28.024Z,2.60
2019-03-24T19:31:56.927Z,2.33
2019-03-24T19:34:25.900Z,2.37
2019-03-24T19:36:56.300Z,3.87
2019-03-24T19:39:26.303Z,3.05
2019-03-24T19:41:55.194Z,3.13
2019-03-24T19:44:24.135Z,3.25
2019-03-24T19:46:53.018Z,4.07
2019-03-24T19:49:21.914Z,3.15
2019-03-24T19:51:50.905Z,3.25
2019-03-24T19:54:19.863Z,3.17
2019-03-24T19:56:48.774Z,3.47
2019-03-24T19:59:17.692Z,2.90
2019-03-24T20:01:47.211Z,3.10
2019-03-24T20:04:16.101Z,3.02
2019-03-24T20:06:45.002Z,2.52
2019-03-24T20:09:13.957Z,2.60
2019-03-24T20:11:42.958Z,3.00
2019-03-24T20:14:11.929Z,3.00
2019-03-24T20:16:40.812Z,2.70
2019-03-24T20:19:09.717Z,3.37
2019-03-24T20:21:38.623Z,2.77
2019-03-24T20:24:07.503Z,3.37
2019-03-24T20:26:36.394Z,3.40
2019-03-24T20:29:05.394Z,3.57
2019-03-24T20:31:34.344Z,3.30
2019-03-24T20:34:03.294Z,2.90
2019-03-24T20:36:32.199Z,2.92
2019-03-24T20:39:01.105Z,3.35
2019-03-24T20:41:31.722Z,2.97
2019-03-24T20:44:00.624Z,2.87
2019-03-24T20:46:29.526Z,3.43
2019-03-24T20:48:58.539Z,3.70
2019-03-24T20:51:27.427Z,3.20
2019-03-24T20:53:56.345Z,3.53
2019-03-24T20:56:25.238Z,3.20
2019-03-24T20:58:54.155Z,3.13
2019-03-24T21:01:23.115Z,2.87
2019-03-24T21:03:52.071Z,2.80
2019-03-24T21:06:21.041Z,2.67
2019-03-24T21:08:49.927Z,3.22
2019-03-24T21:11:20.135Z,3.08
2019-03-24T21:13:49.021Z,2.80
2019-03-24T21:16:17.907Z,2.65
2019-03-24T21:18:47.771Z,2.37
2019-03-24T21:21:16.647Z,2.20
2019-03-24T21:23:46.571Z,2.70
2019-03-24T21:26:15.499Z,2.77
2019-03-24T21:28:44.378Z,3.20
2019-03-24T21:31:13.283Z,3.50
2019-03-24T21:33:42.239Z,3.55
2019-03-24T21:36:11.116Z,3.47
2019-03-24T21:38:40.011Z,3.00
2019-03-24T21:41:08.895Z,3.17
2019-03-24T21:43:37.800Z,2.70
2019-03-24T21:46:06.680Z,2.70
2019-03-24T21:48:35.568Z,2.90
2019-03-24T21:51:04.579Z,2.57
2019-03-24T21:53:40.616Z,2.52
2019-03-24T21:56:03.968Z,2.60
2019-03-24T21:58:32.915Z,2.33
2019-03-24T22:01:01.901Z,3.40
2019-03-24T22:03:30.867Z,2.67
2019-03-24T22:05:59.747Z,2.60
2019-03-24T22:08:28.654Z,3.03
2019-03-24T22:10:57.527Z,3.27
2019-03-24T22:13:26.419Z,2.30
2019-03-24T22:15:55.322Z,3.03
2019-03-24T22:18:24.207Z,2.63
2019-03-24T22:20:53.610Z,3.03
2019-03-24T22:23:22.592Z,2.70
2019-03-24T22:25:51.474Z,2.73
2019-03-24T22:28:21.065Z,3.20
2019-03-24T22:30:49.970Z,1.77
2019-03-24T22:33:18.855Z,3.00
2019-03-24T22:35:47.746Z,2.57
2019-03-24T22:38:16.639Z,2.87
2019-03-24T22:40:45.523Z,2.20
2019-03-24T22:43:14.414Z,1.87
2019-03-24T22:45:43.315Z,3.12
2019-03-24T22:48:12.203Z,2.83
2019-03-24T22:50:41.087Z,2.57
2019-03-24T22:53:09.992Z,2.83
2019-03-24T22:55:38.875Z,3.17
2019-03-24T22:58:07.757Z,3.70
2019-03-24T23:00:55.751Z,3.63
2019-03-24T23:03:25.300Z,2.65
2019-03-24T23:05:54.391Z,2.95
2019-03-24T23:08:23.367Z,2.17
2019-03-24T23:10:52.256Z,3.43
2019-03-24T23:13:21.128Z,2.90
2019-03-24T23:15:50.683Z,2.92
2019-03-24T23:18:20.553Z,3.22
2019-03-24T23:20:49.435Z,2.75
2019-03-24T23:23:18.336Z,3.07
2019-03-24T23:25:47.215Z,3.37
2019-03-24T23:28:16.689Z,3.62
2019-03-24T23:30:45.646Z,2.80
2019-03-24T23:33:14.553Z,2.77
2019-03-24T23:35:43.431Z,2.83
2019-03-24T23:38:12.331Z,1.00
2019-03-24T23:40:41.211Z,0.90
2019-03-24T23:43:10.207Z,2.47
2019-03-24T23:45:39.088Z,2.43
2019-03-24T23:48:07.971Z,2.40
2019-03-24T23:50:36.878Z,3.40
2019-03-24T23:53:05.763Z,3.17
2019-03-24T23:55:34.655Z,2.37
2019-03-24T23:58:03.719Z,2.80
